PROFILE

 METAR AND TAF INFORMATION
ADDS - METARS form results

(1246 UTC 26 September 2021)
http://aviationweather.gov/metar/data/
 
SPRU 261200Z 21005KT 1500 BR OVC002 15/14 Q1014 RMK PP000
TAF SPRU 261100Z 2612/2712 16009KT 2000 -DZ BR OVC002 TX19/2619Z TN15/2711Z BECMG 2612/2614 3500 BR OVC005 BECMG 2616/2618 7000 NSW OVC012 BECMG 2622/2702 4500 BR OVC009 

 AIRPORT MAP

 RUNWAY INFORMATION
Runway 02 Runway length 9920 ft Runway width 145 ft
Runway elevation 46 ft Runway displaced threshold 0 ft Runway heading 17
Runway 20 Runway length 9920 ft Runway width 145 ft
Runway elevation 106 ft Runway displaced threshold 0 ft Runway heading 197

 AIRPORT FREQUENCIES
Type APP Name TRUJILLO A Frequency 118.7 MHZ
Type RDO Name TRUJILLO R Frequency 126.9 MHZ

 AIRPORT NEAR NAVIGATION AIDS
Type VOR-DME Name Trujillo Frequency 116300 KHZ